G. M. Dannevig — LINW — position and weather

sailwx.info

Track history (hours):
 
Tides and Currents Weather Stations Pressure Air Temp Water Temp Dewpoint Dewpoint Depression Visibility Wind Speed Wind Dir Waves Ship Positions

Oceanographic research ship G. M. Dannevig (Norway)

Detailed information on ship capabilities available from University of Delaware's Ocean Information Center.

Last reported at 2020-Sep-29 07:00 UTC. Time now 2020-Sep-29 08:08 UTC.
Position N 59°48' E 010°30'.

Length 27 m; draft 0.35 m.

Type: Dredging. MMSI: 258513000.

Date/timePositionNaut miles runAvg speedWind from/ knotsBaromVisibWave heightAir tempDewpointWater temp
2020-Sep-29 07:00N 59°48' E 010°30'9 4.6
2020-Sep-29 05:00N 59°54' E 010°44'0 0.0
2020-Sep-29 04:31N 59°54' E 010°44'0 0.0
2020-Sep-29 00:30N 59°54' E 010°44'0 0.0
2020-Sep-28 22:00N 59°54' E 010°44'0 0.0
2020-Sep-28 20:00N 59°54' E 010°44'0 0.0
2020-Sep-28 19:31N 59°54' E 010°44'0 0.0
2020-Sep-28 18:30N 59°54' E 010°44'0 0.0
2020-Sep-28 17:31N 59°54' E 010°44'0 0.0
2020-Sep-28 17:00N 59°54' E 010°44'0 0.0
2020-Sep-28 16:00N 59°54' E 010°44'3 1.6
2020-Sep-28 14:00N 59°53' E 010°38'2 0.8
2020-Sep-28 12:00N 59°53' E 010°35'0 0.8
2020-Sep-28 11:31N 59°53' E 010°35'1 1.5
2020-Sep-28 11:00N 59°53' E 010°36'3 5.9
2020-Sep-28 10:30N 59°51' E 010°41'5 2.4
2020-Sep-28 08:30N 59°46' E 010°43'1 1.2
2020-Sep-28 07:30N 59°45' E 010°43'9 2.0
2020-Sep-28 02:58N 59°54' E 010°44'0 0.0
2020-Sep-28 01:28N 59°54' E 010°44'0 0.0
2020-Sep-28 00:58N 59°54' E 010°44'0 0.0
2020-Sep-27 21:58N 59°54' E 010°44'0 0.0
2020-Sep-27 19:58N 59°54' E 010°44'0 0.0
2020-Sep-27 18:58N 59°54' E 010°44'0 0.0
2020-Sep-27 16:58N 59°54' E 010°44'14 4.7
2020-Sep-27 14:00N 59°41' E 010°37'6 5.6
2020-Sep-27 13:00N 59°35' E 010°38'10 3.4
2020-Sep-27 10:01N 59°31' E 010°20'2 0.8
2020-Sep-27 07:30N 59°32' E 010°17'3 0.7
2020-Sep-27 03:00N 59°29' E 010°19'0 0.0
2020-Sep-26 23:00N 59°29' E 010°19'0 0.0
2020-Sep-26 22:00N 59°29' E 010°19'0 0.0
2020-Sep-26 19:00N 59°29' E 010°19'0 0.0
2020-Sep-26 15:00N 59°29' E 010°19'15 3.8
2020-Sep-26 11:00N 59°15' E 010°31'9 6.3
2020-Sep-26 09:30N 59°07' E 010°23'4 2.9
2020-Sep-26 08:00N 59°05' E 010°15'0 0.1
2020-Sep-26 07:30N 59°05' E 010°15'0 0.6
2020-Sep-26 07:00N 59°05' E 010°15'1 1.7
2020-Sep-26 06:30N 59°05' E 010°14'2 2.1
2020-Sep-26 05:30N 59°08' E 010°14'0 0.0
2020-Sep-26 00:30N 59°08' E 010°14'0 0.0
2020-Sep-25 23:30N 59°08' E 010°14'0 0.0
2020-Sep-25 20:30N 59°08' E 010°14'0 0.0
2020-Sep-25 19:30N 59°08' E 010°14'2 0.4
2020-Sep-25 14:30N 59°05' E 010°15'1 1.5
2020-Sep-25 14:00N 59°06' E 010°14'0 0.1
2020-Sep-25 13:30N 59°06' E 010°14'15 2.9
2020-Sep-25 08:23N 59°00' E 009°47'2 1.8
2020-Sep-25 07:18N 59°02' E 009°46'0 0.8
2020-Sep-25 06:48N 59°03' E 009°46'0 0.5
2020-Sep-25 05:54N 59°03' E 009°45'2 0.9
2020-Sep-25 03:56N 59°03' E 009°42'0 0.0
2020-Sep-25 00:26N 59°03' E 009°42'0 0.0
2020-Sep-24 16:47N 59°03' E 009°42'0 0.0
2020-Sep-24 15:53N 59°03' E 009°42'0 0.0
2020-Sep-24 15:17N 59°03' E 009°42'2 1.5
2020-Sep-24 14:00N 59°02' E 009°45'12 1.9
2020-Sep-24 07:30N 58°54' E 009°28'0 0.1
2020-Sep-24 06:29N 58°54' E 009°28'2 2.4
2020-Sep-24 05:30N 58°52' E 009°25'0 0.0
2020-Sep-24 02:58N 58°52' E 009°25'0 0.0
2020-Sep-24 02:28N 58°52' E 009°25'0 0.0
2020-Sep-24 01:58N 58°52' E 009°25'0 0.0
2020-Sep-23 21:28N 58°52' E 009°25'0 0.0
2020-Sep-23 19:58N 58°52' E 009°25'0 0.0
2020-Sep-23 19:25N 58°52' E 009°25'0 0.0
2020-Sep-23 19:22N 58°52' E 009°25'0 0.0
2020-Sep-23 18:58N 58°52' E 009°25'0 0.0
2020-Sep-23 15:00N 58°52' E 009°25'3 2.7
2020-Sep-23 14:00N 58°54' E 009°28'1 0.7
2020-Sep-23 11:59N 58°54' E 009°25'2 1.7
2020-Sep-23 11:00N 58°53' E 009°23'0 0.0
2020-Sep-23 10:30N 58°53' E 009°23'2 0.2
2020-Sep-23 02:00N 58°52' E 009°25'0 0.0
2020-Sep-22 23:00N 58°52' E 009°25'0 0.0
2020-Sep-22 16:31N 58°52' E 009°25'0 0.0
2020-Sep-22 16:00N 58°52' E 009°25'1 1.6
2020-Sep-22 15:31N 58°51' E 009°26'6 1.8
2020-Sep-22 12:00N 58°45' E 009°23'7 6.5
2020-Sep-22 10:59N 58°44' E 009°10'0 0.1
2020-Sep-22 10:00N 58°44' E 009°10'3 5.1
2020-Sep-22 09:30N 58°44' E 009°15'2 1.2
2020-Sep-22 08:01N 58°44' E 009°19'0 0.1
2020-Sep-22 07:31N 58°44' E 009°19'0 0.4
2020-Sep-22 07:00N 58°44' E 009°18'2 1.2
2020-Sep-22 05:00N 58°43' E 009°14'0 0.0
2020-Sep-22 03:47N 58°43' E 009°14'0 0.0
2020-Sep-22 03:22N 58°43' E 009°14'0 0.0
2020-Sep-21 22:59N 58°43' E 009°14'0 0.0
2020-Sep-21 21:57N 58°43' E 009°14'0 0.0
2020-Sep-21 21:30N 58°43' E 009°14'0 0.0
2020-Sep-21 20:30N 58°43' E 009°14'0 0.0
2020-Sep-21 17:30N 58°43' E 009°14'0 0.0
2020-Sep-21 16:00N 58°43' E 009°14'5 2.1
2020-Sep-21 13:31N 58°45' E 009°05'1 0.5
2020-Sep-21 10:30N 58°44' E 009°06'5 2.3
2020-Sep-21 08:30N 58°44' E 009°15'3 2.8
2020-Sep-21 07:30N 58°42' E 009°12'2 0.8
2020-Sep-21 05:30N 58°43' E 009°14'0 0.0
2020-Sep-21 01:30N 58°43' E 009°14'0 0.0
2020-Sep-21 00:30N 58°43' E 009°14'0 0.0
2020-Sep-20 23:30N 58°43' E 009°14'0 0.0
2020-Sep-20 19:30N 58°43' E 009°14'0 0.0
2020-Sep-20 19:01N 58°43' E 009°14'0 0.0
2020-Sep-20 18:00N 58°43' E 009°14'0 0.0
2020-Sep-20 17:30N 58°43' E 009°14'0 0.0
2020-Sep-20 17:00N 58°43' E 009°14'0 0.0
2020-Sep-20 16:30N 58°43' E 009°14'1 1.1
2020-Sep-20 16:00N 58°43' E 009°14'3 1.9
2020-Sep-20 14:30N 58°42' E 009°09'1 0.5
2020-Sep-20 12:30N 58°42' E 009°07'0 0.0
2020-Sep-20 12:00N 58°42' E 009°07'0 0.0
2020-Sep-20 11:29N 58°42' E 009°07'0 0.0
2020-Sep-20 10:30N 58°42' E 009°07'1 0.5
2020-Sep-20 08:30N 58°41' E 009°05'4 2.4
2020-Sep-20 07:00N 58°38' E 009°06'1 0.6
2020-Sep-20 06:00N 58°38' E 009°07'6 1.0
2020-Sep-20 00:00N 58°43' E 009°14'0 0.0
2020-Sep-19 20:30N 58°43' E 009°14'0 0.0
2020-Sep-19 19:00N 58°43' E 009°14'0 0.0
2020-Sep-19 17:30N 58°43' E 009°14'0 0.0
2020-Sep-19 16:29N 58°43' E 009°14'8 3.2
2020-Sep-19 13:59N 58°37' E 009°04'4 1.3
2020-Sep-19 10:59N 58°36' E 008°57'0 0.1
2020-Sep-19 10:00N 58°36' E 008°57'4 1.4
2020-Sep-19 07:26N 58°32' E 008°59'  
Track history (hours):
 
Tides and Currents Weather Stations Pressure Air Temp Water Temp Dewpoint Dewpoint Depression Visibility Wind Speed Wind Dir Waves Ship Positions

Oceanographic research ship G. M. Dannevig (Norway)

Detailed information on ship capabilities available from University of Delaware's Ocean Information Center.

Last reported at 2020-Sep-29 07:00 UTC. Time now 2020-Sep-29 08:08 UTC.
Position N 59°48' E 010°30'.

Length 27 m; draft 0.35 m.

Type: Dredging. MMSI: 258513000.

Date/timePositionNaut miles runAvg speedWind from/ knotsBaromVisibWave heightAir tempDewpointWater temp
2020-Sep-29 07:00N 59°48' E 010°30'9 4.6
2020-Sep-29 05:00N 59°54' E 010°44'0 0.0
2020-Sep-29 04:31N 59°54' E 010°44'0 0.0
2020-Sep-29 00:30N 59°54' E 010°44'0 0.0
2020-Sep-28 22:00N 59°54' E 010°44'0 0.0
2020-Sep-28 20:00N 59°54' E 010°44'0 0.0
2020-Sep-28 19:31N 59°54' E 010°44'0 0.0
2020-Sep-28 18:30N 59°54' E 010°44'0 0.0
2020-Sep-28 17:31N 59°54' E 010°44'0 0.0
2020-Sep-28 17:00N 59°54' E 010°44'0 0.0
2020-Sep-28 16:00N 59°54' E 010°44'3 1.6
2020-Sep-28 14:00N 59°53' E 010°38'2 0.8
2020-Sep-28 12:00N 59°53' E 010°35'0 0.8
2020-Sep-28 11:31N 59°53' E 010°35'1 1.5
2020-Sep-28 11:00N 59°53' E 010°36'3 5.9
2020-Sep-28 10:30N 59°51' E 010°41'5 2.4
2020-Sep-28 08:30N 59°46' E 010°43'1 1.2
2020-Sep-28 07:30N 59°45' E 010°43'9 2.0
2020-Sep-28 02:58N 59°54' E 010°44'0 0.0
2020-Sep-28 01:28N 59°54' E 010°44'0 0.0
2020-Sep-28 00:58N 59°54' E 010°44'0 0.0
2020-Sep-27 21:58N 59°54' E 010°44'0 0.0
2020-Sep-27 19:58N 59°54' E 010°44'0 0.0
2020-Sep-27 18:58N 59°54' E 010°44'0 0.0
2020-Sep-27 16:58N 59°54' E 010°44'14 4.7
2020-Sep-27 14:00N 59°41' E 010°37'6 5.6
2020-Sep-27 13:00N 59°35' E 010°38'10 3.4
2020-Sep-27 10:01N 59°31' E 010°20'2 0.8
2020-Sep-27 07:30N 59°32' E 010°17'3 0.7
2020-Sep-27 03:00N 59°29' E 010°19'0 0.0
2020-Sep-26 23:00N 59°29' E 010°19'0 0.0
2020-Sep-26 22:00N 59°29' E 010°19'0 0.0
2020-Sep-26 19:00N 59°29' E 010°19'0 0.0
2020-Sep-26 15:00N 59°29' E 010°19'15 3.8
2020-Sep-26 11:00N 59°15' E 010°31'9 6.3
2020-Sep-26 09:30N 59°07' E 010°23'4 2.9
2020-Sep-26 08:00N 59°05' E 010°15'0 0.1
2020-Sep-26 07:30N 59°05' E 010°15'0 0.6
2020-Sep-26 07:00N 59°05' E 010°15'1 1.7
2020-Sep-26 06:30N 59°05' E 010°14'2 2.1
2020-Sep-26 05:30N 59°08' E 010°14'0 0.0
2020-Sep-26 00:30N 59°08' E 010°14'0 0.0
2020-Sep-25 23:30N 59°08' E 010°14'0 0.0
2020-Sep-25 20:30N 59°08' E 010°14'0 0.0
2020-Sep-25 19:30N 59°08' E 010°14'2 0.4
2020-Sep-25 14:30N 59°05' E 010°15'1 1.5
2020-Sep-25 14:00N 59°06' E 010°14'0 0.1
2020-Sep-25 13:30N 59°06' E 010°14'15 2.9
2020-Sep-25 08:23N 59°00' E 009°47'2 1.8
2020-Sep-25 07:18N 59°02' E 009°46'0 0.8
2020-Sep-25 06:48N 59°03' E 009°46'0 0.5
2020-Sep-25 05:54N 59°03' E 009°45'2 0.9
2020-Sep-25 03:56N 59°03' E 009°42'0 0.0
2020-Sep-25 00:26N 59°03' E 009°42'0 0.0
2020-Sep-24 16:47N 59°03' E 009°42'0 0.0
2020-Sep-24 15:53N 59°03' E 009°42'0 0.0
2020-Sep-24 15:17N 59°03' E 009°42'2 1.5
2020-Sep-24 14:00N 59°02' E 009°45'12 1.9
2020-Sep-24 07:30N 58°54' E 009°28'0 0.1
2020-Sep-24 06:29N 58°54' E 009°28'2 2.4
2020-Sep-24 05:30N 58°52' E 009°25'0 0.0
2020-Sep-24 02:58N 58°52' E 009°25'0 0.0
2020-Sep-24 02:28N 58°52' E 009°25'0 0.0
2020-Sep-24 01:58N 58°52' E 009°25'0 0.0
2020-Sep-23 21:28N 58°52' E 009°25'0 0.0
2020-Sep-23 19:58N 58°52' E 009°25'0 0.0
2020-Sep-23 19:25N 58°52' E 009°25'0 0.0
2020-Sep-23 19:22N 58°52' E 009°25'0 0.0
2020-Sep-23 18:58N 58°52' E 009°25'0 0.0
2020-Sep-23 15:00N 58°52' E 009°25'3 2.7
2020-Sep-23 14:00N 58°54' E 009°28'1 0.7
2020-Sep-23 11:59N 58°54' E 009°25'2 1.7
2020-Sep-23 11:00N 58°53' E 009°23'0 0.0
2020-Sep-23 10:30N 58°53' E 009°23'2 0.2
2020-Sep-23 02:00N 58°52' E 009°25'0 0.0
2020-Sep-22 23:00N 58°52' E 009°25'0 0.0
2020-Sep-22 16:31N 58°52' E 009°25'0 0.0
2020-Sep-22 16:00N 58°52' E 009°25'1 1.6
2020-Sep-22 15:31N 58°51' E 009°26'6 1.8
2020-Sep-22 12:00N 58°45' E 009°23'7 6.5
2020-Sep-22 10:59N 58°44' E 009°10'0 0.1
2020-Sep-22 10:00N 58°44' E 009°10'3 5.1
2020-Sep-22 09:30N 58°44' E 009°15'2 1.2
2020-Sep-22 08:01N 58°44' E 009°19'0 0.1
2020-Sep-22 07:31N 58°44' E 009°19'0 0.4
2020-Sep-22 07:00N 58°44' E 009°18'2 1.2
2020-Sep-22 05:00N 58°43' E 009°14'0 0.0
2020-Sep-22 03:47N 58°43' E 009°14'0 0.0
2020-Sep-22 03:22N 58°43' E 009°14'0 0.0
2020-Sep-21 22:59N 58°43' E 009°14'0 0.0
2020-Sep-21 21:57N 58°43' E 009°14'0 0.0
2020-Sep-21 21:30N 58°43' E 009°14'0 0.0
2020-Sep-21 20:30N 58°43' E 009°14'0 0.0
2020-Sep-21 17:30N 58°43' E 009°14'0 0.0
2020-Sep-21 16:00N 58°43' E 009°14'5 2.1
2020-Sep-21 13:31N 58°45' E 009°05'1 0.5
2020-Sep-21 10:30N 58°44' E 009°06'5 2.3
2020-Sep-21 08:30N 58°44' E 009°15'3 2.8
2020-Sep-21 07:30N 58°42' E 009°12'2 0.8
2020-Sep-21 05:30N 58°43' E 009°14'0 0.0
2020-Sep-21 01:30N 58°43' E 009°14'0 0.0
2020-Sep-21 00:30N 58°43' E 009°14'0 0.0
2020-Sep-20 23:30N 58°43' E 009°14'0 0.0
2020-Sep-20 19:30N 58°43' E 009°14'0 0.0
2020-Sep-20 19:01N 58°43' E 009°14'0 0.0
2020-Sep-20 18:00N 58°43' E 009°14'0 0.0
2020-Sep-20 17:30N 58°43' E 009°14'0 0.0
2020-Sep-20 17:00N 58°43' E 009°14'0 0.0
2020-Sep-20 16:30N 58°43' E 009°14'1 1.1
2020-Sep-20 16:00N 58°43' E 009°14'3 1.9
2020-Sep-20 14:30N 58°42' E 009°09'1 0.5
2020-Sep-20 12:30N 58°42' E 009°07'0 0.0
2020-Sep-20 12:00N 58°42' E 009°07'0 0.0
2020-Sep-20 11:29N 58°42' E 009°07'0 0.0
2020-Sep-20 10:30N 58°42' E 009°07'1 0.5
2020-Sep-20 08:30N 58°41' E 009°05'4 2.4
2020-Sep-20 07:00N 58°38' E 009°06'1 0.6
2020-Sep-20 06:00N 58°38' E 009°07'6 1.0
2020-Sep-20 00:00N 58°43' E 009°14'0 0.0
2020-Sep-19 20:30N 58°43' E 009°14'0 0.0
2020-Sep-19 19:00N 58°43' E 009°14'0 0.0
2020-Sep-19 17:30N 58°43' E 009°14'0 0.0
2020-Sep-19 16:29N 58°43' E 009°14'8 3.2
2020-Sep-19 13:59N 58°37' E 009°04'4 1.3
2020-Sep-19 10:59N 58°36' E 008°57'0 0.1
2020-Sep-19 10:00N 58°36' E 008°57'4 1.4
2020-Sep-19 07:26N 58°32' E 008°59'  

Dump ship's entire track history